createdAt,value
2018-10-09T00:00:05.905Z,9.31
2018-10-09T00:02:36.500Z,9.28
2018-10-09T00:05:07.644Z,9.24
2018-10-09T00:07:38.373Z,9.25
2018-10-09T00:10:09.162Z,9.25
2018-10-09T00:12:39.794Z,9.22
2018-10-09T00:15:10.436Z,9.21
2018-10-09T00:17:41.079Z,9.20
2018-10-09T00:20:15.150Z,9.17
2018-10-09T00:22:45.869Z,9.19
2018-10-09T00:25:16.494Z,9.24
2018-10-09T00:27:47.156Z,9.23
2018-10-09T00:30:17.895Z,9.28
2018-10-09T00:32:48.474Z,9.38
2018-10-09T00:35:19.151Z,9.19
2018-10-09T00:37:49.861Z,9.14
2018-10-09T00:40:20.536Z,9.12
2018-10-09T00:42:51.307Z,9.13
2018-10-09T00:45:21.970Z,9.16
2018-10-09T00:47:52.655Z,9.17
2018-10-09T00:50:23.327Z,9.19
2018-10-09T00:52:53.966Z,9.14
2018-10-09T00:55:24.728Z,9.08
2018-10-09T00:57:55.419Z,9.09
2018-10-09T01:00:26.125Z,9.09
2018-10-09T01:02:56.768Z,9.09
2018-10-09T01:05:27.446Z,9.06
2018-10-09T01:07:58.082Z,9.09
2018-10-09T01:10:28.761Z,9.09
2018-10-09T01:12:59.374Z,9.10
2018-10-09T01:15:30.209Z,9.07
2018-10-09T01:18:31.817Z,9.05
2018-10-09T01:21:02.520Z,9.02
2018-10-09T01:23:33.183Z,8.98
2018-10-09T01:26:03.933Z,8.98
2018-10-09T01:28:34.580Z,8.97
2018-10-09T01:31:05.265Z,8.95
2018-10-09T01:33:35.943Z,8.92
2018-10-09T01:36:06.824Z,8.89
2018-10-09T01:38:37.566Z,8.88
2018-10-09T01:41:08.204Z,8.87
2018-10-09T01:43:38.872Z,8.87
2018-10-09T01:46:09.558Z,8.86
2018-10-09T01:48:40.255Z,8.86
2018-10-09T01:51:11.027Z,8.86
2018-10-09T01:53:41.745Z,8.85
2018-10-09T01:56:12.388Z,8.83
2018-10-09T01:58:43.012Z,8.82
2018-10-09T02:01:13.634Z,8.82
2018-10-09T02:03:44.247Z,8.83
2018-10-09T02:06:14.944Z,8.83
2018-10-09T02:08:45.576Z,8.81
2018-10-09T02:11:16.236Z,8.79
2018-10-09T02:13:46.878Z,8.75
2018-10-09T02:16:17.793Z,8.72
2018-10-09T02:18:48.419Z,8.72
2018-10-09T02:21:19.066Z,8.69
2018-10-09T02:23:49.672Z,8.69
2018-10-09T02:26:20.304Z,8.68
2018-10-09T02:28:51.011Z,8.62
2018-10-09T02:31:21.776Z,8.66
2018-10-09T02:33:52.415Z,8.66
2018-10-09T02:36:23.010Z,8.68
2018-10-09T02:38:53.675Z,8.61
2018-10-09T02:41:24.361Z,8.59
2018-10-09T02:43:55.045Z,8.56
2018-10-09T02:46:25.745Z,8.54
2018-10-09T02:48:56.487Z,8.53
2018-10-09T02:51:27.226Z,8.53
2018-10-09T02:53:58.046Z,8.53
2018-10-09T02:56:28.689Z,8.55
2018-10-09T02:58:59.366Z,8.52
2018-10-09T03:01:30.151Z,8.51
2018-10-09T03:04:00.821Z,8.50
2018-10-09T03:06:31.475Z,8.51
2018-10-09T03:09:02.178Z,8.52
2018-10-09T03:11:32.891Z,8.52
2018-10-09T03:14:03.660Z,8.52
2018-10-09T03:16:34.305Z,8.51
2018-10-09T03:19:04.992Z,8.50
2018-10-09T03:21:35.663Z,8.48
2018-10-09T03:24:06.423Z,8.47
2018-10-09T03:26:37.047Z,8.48
2018-10-09T03:29:08.080Z,8.45
2018-10-09T03:31:38.755Z,8.43
2018-10-09T03:34:09.423Z,8.41
2018-10-09T03:36:40.093Z,8.40
2018-10-09T03:39:11.052Z,8.37
2018-10-09T03:41:41.610Z,8.35
2018-10-09T03:44:12.287Z,8.36
2018-10-09T03:46:42.952Z,8.33
2018-10-09T03:49:13.603Z,8.31
2018-10-09T03:51:44.296Z,8.29
2018-10-09T03:54:14.988Z,8.28
2018-10-09T03:56:45.759Z,8.28
2018-10-09T03:59:16.382Z,8.27
2018-10-09T04:01:47.026Z,8.30
2018-10-09T04:04:17.688Z,8.27
2018-10-09T04:06:48.303Z,8.25
2018-10-09T04:09:18.993Z,8.25
2018-10-09T04:11:49.569Z,8.27
2018-10-09T04:14:20.272Z,8.25
2018-10-09T04:16:50.913Z,8.22
2018-10-09T04:19:21.624Z,8.21
2018-10-09T04:21:52.247Z,8.18
2018-10-09T04:24:22.835Z,8.19
2018-10-09T04:26:53.511Z,8.18
2018-10-09T04:29:24.271Z,8.19
2018-10-09T04:31:54.877Z,8.18
2018-10-09T04:34:25.463Z,8.17
2018-10-09T04:36:56.073Z,8.18
2018-10-09T04:39:26.686Z,8.21
2018-10-09T04:41:57.340Z,8.17
2018-10-09T04:44:27.999Z,8.16
2018-10-09T04:46:58.790Z,8.13
2018-10-09T04:49:29.485Z,8.11
2018-10-09T04:52:00.111Z,8.11
2018-10-09T04:54:30.882Z,8.11
2018-10-09T04:57:01.502Z,8.09
2018-10-09T04:59:32.176Z,8.09
2018-10-09T05:02:02.853Z,8.11
2018-10-09T05:04:33.505Z,8.09
2018-10-09T05:07:04.203Z,8.12
2018-10-09T05:09:34.901Z,8.08
2018-10-09T05:12:05.593Z,8.06
2018-10-09T05:14:36.226Z,8.05
2018-10-09T05:17:07.260Z,8.05
2018-10-09T05:19:37.894Z,8.01
2018-10-09T05:22:08.775Z,8.00
2018-10-09T05:24:39.435Z,8.02
2018-10-09T05:27:10.103Z,8.00
2018-10-09T05:29:40.846Z,8.01
2018-10-09T05:32:11.516Z,7.97
2018-10-09T05:34:42.115Z,7.96
2018-10-09T05:37:12.790Z,7.94
2018-10-09T05:39:43.466Z,7.94
2018-10-09T05:42:14.139Z,7.95
2018-10-09T05:44:44.854Z,7.96
2018-10-09T05:47:15.520Z,7.97
2018-10-09T05:49:46.147Z,8.00
2018-10-09T05:52:16.790Z,8.04
2018-10-09T05:54:47.618Z,7.96
2018-10-09T05:57:18.264Z,7.96
2018-10-09T05:59:48.956Z,7.96
2018-10-09T06:02:19.638Z,7.96
2018-10-09T06:04:50.331Z,8.00
2018-10-09T06:07:21.065Z,8.01
2018-10-09T06:09:51.753Z,8.05
2018-10-09T06:12:22.428Z,8.09
2018-10-09T06:14:53.085Z,8.16
2018-10-09T06:17:23.771Z,8.23
2018-10-09T06:19:54.422Z,8.33
2018-10-09T06:22:25.084Z,8.41
2018-10-09T06:24:55.696Z,8.51
2018-10-09T06:27:26.375Z,8.57
2018-10-09T06:29:57.038Z,8.66
2018-10-09T06:32:27.673Z,8.69
2018-10-09T06:34:58.395Z,8.82
2018-10-09T06:37:29.007Z,9.01
2018-10-09T06:39:59.695Z,9.15
2018-10-09T06:42:30.389Z,9.30
2018-10-09T06:45:01.047Z,9.66
2018-10-09T06:47:32.347Z,9.90
2018-10-09T06:50:03.021Z,9.94
2018-10-09T06:52:33.666Z,10.04
2018-10-09T06:55:04.362Z,10.14
2018-10-09T06:57:35.061Z,10.33
2018-10-09T07:00:05.995Z,10.74
2018-10-09T07:02:36.670Z,11.02
2018-10-09T07:05:07.596Z,11.24
2018-10-09T07:07:38.305Z,11.61
2018-10-09T07:10:09.085Z,12.32
2018-10-09T07:12:39.740Z,12.85
2018-10-09T07:15:10.498Z,12.92
2018-10-09T07:17:41.184Z,13.05
2018-10-09T07:20:11.848Z,13.26
2018-10-09T07:22:42.532Z,13.47
2018-10-09T07:25:13.194Z,13.69
2018-10-09T07:27:43.848Z,13.62
2018-10-09T07:30:14.488Z,13.41
2018-10-09T07:32:45.160Z,13.23
2018-10-09T07:35:15.863Z,13.09
2018-10-09T07:37:46.523Z,12.86
2018-10-09T07:40:17.274Z,12.69
2018-10-09T07:42:47.908Z,12.58
2018-10-09T07:45:18.596Z,12.37
2018-10-09T07:47:49.272Z,12.21
2018-10-09T07:50:19.910Z,12.25
2018-10-09T07:52:50.667Z,12.44
2018-10-09T07:55:21.339Z,12.80
2018-10-09T07:57:52.040Z,13.39
2018-10-09T08:00:22.965Z,14.19
2018-10-09T08:02:53.684Z,14.76
2018-10-09T08:05:27.400Z,15.11
2018-10-09T08:07:58.058Z,15.36
2018-10-09T08:10:28.899Z,15.55
2018-10-09T08:12:59.489Z,15.59
2018-10-09T08:15:30.181Z,15.82
2018-10-09T08:18:00.864Z,16.33
2018-10-09T08:20:31.539Z,16.68
2018-10-09T08:23:02.341Z,16.98
2018-10-09T08:25:32.962Z,17.46
2018-10-09T08:28:03.662Z,17.70
2018-10-09T08:30:34.362Z,18.02
2018-10-09T08:33:05.088Z,18.10
2018-10-09T08:35:35.708Z,18.34
2018-10-09T08:38:06.457Z,18.48
2018-10-09T08:40:37.162Z,18.50
2018-10-09T08:43:07.865Z,18.69
2018-10-09T08:45:38.511Z,18.77
2018-10-09T08:48:09.217Z,18.54
2018-10-09T08:50:39.851Z,18.46
2018-10-09T08:53:10.539Z,18.58
2018-10-09T08:55:41.255Z,18.87
2018-10-09T08:58:11.939Z,19.27
2018-10-09T09:00:42.740Z,19.80
2018-10-09T09:03:13.397Z,20.43
2018-10-09T09:05:44.194Z,20.53
2018-10-09T09:08:14.832Z,20.65
2018-10-09T09:10:45.565Z,21.11
2018-10-09T09:13:16.281Z,21.37
2018-10-09T09:15:46.967Z,22.07
2018-10-09T09:18:17.634Z,22.75
2018-10-09T09:20:48.320Z,23.41
2018-10-09T09:23:18.968Z,23.99
2018-10-09T09:25:49.634Z,24.46
2018-10-09T09:28:20.286Z,24.61
2018-10-09T09:30:50.904Z,24.30
2018-10-09T09:33:21.659Z,23.89
2018-10-09T09:35:52.326Z,23.66
2018-10-09T09:38:22.992Z,23.41
2018-10-09T09:40:53.702Z,23.57
2018-10-09T09:43:24.409Z,23.66
2018-10-09T09:45:55.236Z,23.32
2018-10-09T09:48:25.813Z,23.17
2018-10-09T09:50:56.514Z,23.37
2018-10-09T09:53:27.210Z,23.56
2018-10-09T09:55:57.927Z,23.42
2018-10-09T09:58:28.661Z,23.63
2018-10-09T10:01:13.499Z,23.98
2018-10-09T10:03:44.258Z,24.03
2018-10-09T10:06:14.878Z,24.11
2018-10-09T10:08:45.543Z,24.13
2018-10-09T10:11:16.150Z,24.24
2018-10-09T10:13:46.799Z,24.35
2018-10-09T10:16:17.500Z,24.24
2018-10-09T10:18:48.238Z,23.68
2018-10-09T10:21:19.267Z,23.00
2018-10-09T10:23:49.924Z,23.13
2018-10-09T10:26:20.640Z,23.46
2018-10-09T10:28:51.365Z,23.96
2018-10-09T10:31:22.026Z,24.04
2018-10-09T10:33:52.802Z,23.80
2018-10-09T10:36:23.522Z,24.10
2018-10-09T10:38:54.186Z,24.23
2018-10-09T10:41:24.893Z,24.73
2018-10-09T10:43:55.566Z,25.29
2018-10-09T10:46:30.237Z,25.73
2018-10-09T10:49:06.743Z,25.99
2018-10-09T10:51:37.940Z,26.54
2018-10-09T10:54:08.895Z,26.98
2018-10-09T10:56:39.675Z,27.55
2018-10-09T10:59:10.416Z,27.91
2018-10-09T11:01:41.420Z,28.25
2018-10-09T11:04:12.096Z,28.60
2018-10-09T11:06:42.840Z,28.62
2018-10-09T11:09:13.493Z,28.64
2018-10-09T11:11:44.196Z,28.77
2018-10-09T11:14:14.911Z,29.00
2018-10-09T11:16:45.599Z,29.16
2018-10-09T11:19:16.231Z,29.42
2018-10-09T11:21:46.917Z,29.76
2018-10-09T11:24:17.577Z,29.99
2018-10-09T11:26:48.268Z,30.15
2018-10-09T11:29:19.995Z,30.18
2018-10-09T11:31:50.653Z,30.16
2018-10-09T11:34:21.292Z,29.86
2018-10-09T11:36:51.948Z,29.90
2018-10-09T11:39:22.656Z,29.97
2018-10-09T11:41:53.333Z,29.67
2018-10-09T11:44:23.981Z,29.57
2018-10-09T11:46:54.667Z,29.46
2018-10-09T11:49:25.396Z,29.64
2018-10-09T11:51:56.076Z,29.95
2018-10-09T11:54:26.733Z,30.24
2018-10-09T11:56:57.423Z,30.37
2018-10-09T11:59:28.101Z,30.16
2018-10-09T12:01:58.798Z,29.84
2018-10-09T12:04:29.538Z,29.64
2018-10-09T12:07:00.218Z,29.66
2018-10-09T12:09:30.910Z,29.61
2018-10-09T12:12:01.560Z,29.27
2018-10-09T12:14:32.233Z,28.87
2018-10-09T12:17:02.882Z,28.58
2018-10-09T12:19:33.513Z,28.57
2018-10-09T12:22:04.300Z,28.91
2018-10-09T12:24:34.893Z,28.59
2018-10-09T12:27:05.607Z,28.40
2018-10-09T12:29:36.248Z,28.41
2018-10-09T12:32:07.108Z,28.19
2018-10-09T12:34:37.799Z,27.37
2018-10-09T12:37:08.518Z,27.20
2018-10-09T12:39:39.183Z,26.86
2018-10-09T12:42:09.886Z,26.61
2018-10-09T12:44:40.560Z,26.59
2018-10-09T12:47:11.223Z,26.68
2018-10-09T12:49:41.893Z,26.68
2018-10-09T12:52:12.533Z,26.75
2018-10-09T12:54:43.227Z,26.86
2018-10-09T12:57:13.926Z,26.88
2018-10-09T12:59:44.589Z,26.83
2018-10-09T13:02:15.266Z,26.73
2018-10-09T13:04:45.904Z,26.68
2018-10-09T13:07:16.557Z,26.76
2018-10-09T13:09:47.196Z,26.90
2018-10-09T13:12:17.859Z,26.97
2018-10-09T13:14:48.521Z,27.15
2018-10-09T13:17:19.215Z,27.47
2018-10-09T13:19:49.863Z,27.53
2018-10-09T13:22:20.904Z,27.59
2018-10-09T13:25:06.144Z,27.68
2018-10-09T13:27:36.823Z,27.79
2018-10-09T13:30:08.360Z,27.98
2018-10-09T13:32:39.013Z,27.93
2018-10-09T13:35:09.803Z,28.17
2018-10-09T13:37:40.442Z,28.05
2018-10-09T13:40:11.118Z,27.92
2018-10-09T13:42:41.791Z,28.30
2018-10-09T13:45:12.426Z,28.66
2018-10-09T13:47:43.203Z,28.78
2018-10-09T13:50:13.865Z,28.87
2018-10-09T13:52:44.528Z,28.91
2018-10-09T13:55:15.245Z,28.85
2018-10-09T13:57:45.859Z,28.69
2018-10-09T14:00:16.529Z,28.48
2018-10-09T14:02:47.229Z,28.39
2018-10-09T14:05:17.962Z,28.03
2018-10-09T14:07:49.541Z,27.94
2018-10-09T14:10:20.192Z,27.71
2018-10-09T14:12:50.845Z,27.56
2018-10-09T14:15:21.609Z,27.31
2018-10-09T14:17:52.248Z,27.18
2018-10-09T14:20:22.865Z,26.86
2018-10-09T14:22:53.594Z,26.59
2018-10-09T14:25:24.148Z,26.40
2018-10-09T14:27:54.806Z,26.26
2018-10-09T14:30:25.489Z,26.07
2018-10-09T14:32:56.116Z,25.90
2018-10-09T14:35:26.847Z,25.95
2018-10-09T14:37:57.510Z,26.06
2018-10-09T14:40:28.214Z,26.24
2018-10-09T14:42:58.847Z,26.24
2018-10-09T14:45:29.604Z,26.42
2018-10-09T14:48:00.263Z,26.46
2018-10-09T14:50:30.905Z,26.38
2018-10-09T14:53:01.566Z,26.41
2018-10-09T14:55:38.820Z,26.05
2018-10-09T14:58:09.551Z,25.84
2018-10-09T15:00:40.249Z,25.59
2018-10-09T15:03:10.985Z,25.59
2018-10-09T15:05:41.704Z,25.69
2018-10-09T15:08:12.462Z,25.88
2018-10-09T15:10:43.162Z,26.07
2018-10-09T15:13:13.822Z,26.24
2018-10-09T15:15:44.507Z,26.28
2018-10-09T15:18:15.119Z,26.16
2018-10-09T15:20:45.832Z,26.25
2018-10-09T15:23:16.519Z,26.14
2018-10-09T15:25:47.172Z,25.89
2018-10-09T15:28:17.864Z,25.93
2018-10-09T15:30:48.466Z,26.02
2018-10-09T15:33:19.160Z,26.05
2018-10-09T15:35:49.818Z,26.00
2018-10-09T15:38:20.482Z,25.83
2018-10-09T15:40:51.096Z,25.66
2018-10-09T15:43:21.835Z,25.51
2018-10-09T15:45:52.475Z,25.40
2018-10-09T15:48:23.136Z,25.31
2018-10-09T15:50:53.879Z,25.20
2018-10-09T15:53:24.567Z,25.13
2018-10-09T15:55:55.209Z,24.98
2018-10-09T15:58:25.994Z,24.74
2018-10-09T16:00:56.558Z,24.49
2018-10-09T16:03:27.266Z,24.24
2018-10-09T16:05:58.021Z,24.00
2018-10-09T16:08:28.687Z,23.76
2018-10-09T16:10:59.346Z,23.52
2018-10-09T16:13:29.972Z,23.32
2018-10-09T16:16:00.659Z,23.12
2018-10-09T16:18:31.327Z,22.95
2018-10-09T16:21:01.982Z,22.77
2018-10-09T16:23:33.114Z,22.55
2018-10-09T16:26:03.815Z,22.37
2018-10-09T16:28:34.493Z,22.17
2018-10-09T16:31:05.211Z,21.99
2018-10-09T16:33:35.940Z,21.83
2018-10-09T16:36:06.657Z,21.75
2018-10-09T16:38:37.377Z,21.64
2018-10-09T16:41:08.636Z,21.52
2018-10-09T16:43:39.252Z,21.40
2018-10-09T16:46:09.900Z,21.24
2018-10-09T16:48:40.631Z,21.04
2018-10-09T16:51:11.384Z,20.83
2018-10-09T16:53:42.025Z,20.61
2018-10-09T16:56:12.644Z,20.45
2018-10-09T16:58:43.284Z,20.25
2018-10-09T17:01:13.940Z,20.03
2018-10-09T17:03:44.562Z,19.86
2018-10-09T17:06:15.297Z,19.69
2018-10-09T17:08:45.927Z,19.56
2018-10-09T17:11:16.686Z,19.44
2018-10-09T17:13:47.304Z,19.29
2018-10-09T17:16:17.958Z,19.13
2018-10-09T17:18:48.688Z,18.99
2018-10-09T17:21:19.336Z,18.88
2018-10-09T17:23:50.020Z,18.76
2018-10-09T17:26:20.636Z,18.63
2018-10-09T17:28:51.259Z,18.51
2018-10-09T17:31:21.915Z,18.37
2018-10-09T17:33:52.561Z,18.26
2018-10-09T17:36:23.257Z,18.16
2018-10-09T17:38:53.907Z,18.05
2018-10-09T17:41:24.567Z,17.98
2018-10-09T17:43:55.199Z,17.87
2018-10-09T17:46:25.970Z,17.76
2018-10-09T17:48:56.476Z,17.64
2018-10-09T17:51:27.116Z,17.54
2018-10-09T17:53:57.833Z,17.43
2018-10-09T17:56:28.479Z,17.35
2018-10-09T17:58:59.070Z,17.25
2018-10-09T18:01:29.817Z,17.17
2018-10-09T18:04:00.451Z,17.11
2018-10-09T18:06:31.179Z,17.07
2018-10-09T18:09:01.905Z,17.05
2018-10-09T18:11:32.515Z,17.04
2018-10-09T18:14:03.138Z,16.94
2018-10-09T18:16:33.769Z,16.99
2018-10-09T18:19:04.587Z,16.90
2018-10-09T18:21:35.845Z,16.79
2018-10-09T18:24:06.914Z,16.83
2018-10-09T18:26:37.527Z,16.79
2018-10-09T18:29:08.219Z,16.65
2018-10-09T18:31:38.835Z,16.55
2018-10-09T18:34:09.544Z,16.50
2018-10-09T18:36:40.322Z,16.44
2018-10-09T18:39:14.779Z,16.40
2018-10-09T18:41:46.412Z,16.45
2018-10-09T18:44:17.068Z,16.34
2018-10-09T18:46:47.757Z,16.26
2018-10-09T18:49:18.492Z,16.29
2018-10-09T18:51:49.150Z,16.28
2018-10-09T18:54:19.826Z,16.27
2018-10-09T18:56:50.425Z,16.26
2018-10-09T18:59:21.092Z,16.29
2018-10-09T19:01:51.876Z,16.27
2018-10-09T19:04:22.560Z,16.27
2018-10-09T19:06:53.233Z,16.25
2018-10-09T19:09:23.863Z,16.29
2018-10-09T19:11:54.558Z,16.29
2018-10-09T19:14:25.232Z,16.27
2018-10-09T19:16:55.964Z,16.26
2018-10-09T19:19:26.896Z,16.29
2018-10-09T19:21:57.588Z,16.33
2018-10-09T19:24:28.268Z,16.40
2018-10-09T19:26:59.298Z,16.35
2018-10-09T19:30:01.364Z,16.31
2018-10-09T19:32:32.087Z,16.30
2018-10-09T19:35:03.454Z,16.23
2018-10-09T19:37:34.134Z,16.16
2018-10-09T19:40:05.909Z,16.13
2018-10-09T19:42:36.570Z,16.13
2018-10-09T19:45:07.367Z,16.06
2018-10-09T19:47:38.585Z,15.94
2018-10-09T19:50:09.799Z,15.82
2018-10-09T19:52:40.445Z,15.75
2018-10-09T19:55:11.147Z,15.67
2018-10-09T19:57:41.758Z,15.57
2018-10-09T20:00:12.466Z,15.43
2018-10-09T20:02:43.093Z,15.35
2018-10-09T20:05:13.772Z,15.28
2018-10-09T20:07:44.534Z,15.23
2018-10-09T20:10:15.180Z,15.19
2018-10-09T20:12:45.847Z,15.16
2018-10-09T20:15:16.505Z,15.18
2018-10-09T20:17:47.408Z,15.16
2018-10-09T20:20:18.094Z,15.14
2018-10-09T20:22:48.943Z,15.10
2018-10-09T20:25:19.603Z,15.05
2018-10-09T20:27:50.323Z,14.96
2018-10-09T20:30:20.995Z,14.94
2018-10-09T20:32:51.714Z,14.92
2018-10-09T20:35:22.339Z,14.87
2018-10-09T20:37:53.036Z,14.98
2018-10-09T20:40:23.740Z,14.96
2018-10-09T20:42:54.435Z,14.94
2018-10-09T20:45:25.109Z,14.99
2018-10-09T20:47:55.802Z,14.99
2018-10-09T20:50:26.405Z,14.91
2018-10-09T20:52:57.076Z,14.93
2018-10-09T20:55:27.762Z,14.88
2018-10-09T20:57:58.409Z,14.91
2018-10-09T21:00:29.068Z,14.87
2018-10-09T21:02:59.767Z,14.87
2018-10-09T21:05:30.442Z,14.86
2018-10-09T21:08:01.072Z,14.90
2018-10-09T21:10:31.753Z,14.90
2018-10-09T21:13:02.398Z,14.90
2018-10-09T21:15:33.095Z,14.93
2018-10-09T21:18:03.850Z,14.96
2018-10-09T21:20:34.466Z,14.92
2018-10-09T21:23:05.155Z,14.89
2018-10-09T21:25:35.825Z,14.89
2018-10-09T21:28:06.693Z,14.81
2018-10-09T21:30:37.332Z,14.74
2018-10-09T21:33:08.222Z,14.69
2018-10-09T21:35:38.880Z,14.72
2018-10-09T21:38:09.659Z,14.68
2018-10-09T21:40:40.411Z,14.66
2018-10-09T21:43:11.132Z,14.63
2018-10-09T21:45:41.777Z,14.54
2018-10-09T21:48:43.396Z,14.46
2018-10-09T21:51:14.787Z,14.45
2018-10-09T21:53:45.494Z,14.36
2018-10-09T21:56:16.221Z,14.30
2018-10-09T21:58:46.917Z,14.29
2018-10-09T22:01:17.565Z,14.17
2018-10-09T22:03:48.231Z,14.12
2018-10-09T22:06:18.890Z,14.03
2018-10-09T22:08:53.815Z,13.98
2018-10-09T22:11:24.448Z,13.91
2018-10-09T22:13:55.114Z,13.89
2018-10-09T22:16:25.755Z,13.87
2018-10-09T22:18:56.434Z,13.86
2018-10-09T22:21:27.092Z,13.80
2018-10-09T22:23:57.799Z,13.77
2018-10-09T22:26:28.467Z,13.74
2018-10-09T22:28:59.217Z,13.71
2018-10-09T22:31:29.912Z,13.64
2018-10-09T22:34:00.610Z,13.57
2018-10-09T22:36:31.242Z,13.67
2018-10-09T22:39:01.947Z,13.81
2018-10-09T22:41:32.554Z,13.89
2018-10-09T22:44:03.312Z,13.80
2018-10-09T22:46:34.048Z,13.82
2018-10-09T22:49:04.722Z,13.80
2018-10-09T22:51:35.448Z,13.80
2018-10-09T22:54:06.116Z,13.83
2018-10-09T22:56:36.786Z,13.85
2018-10-09T22:59:07.505Z,13.91
2018-10-09T23:01:38.208Z,13.83
2018-10-09T23:04:08.992Z,13.79
2018-10-09T23:06:39.637Z,13.80
2018-10-09T23:09:12.084Z,13.78
2018-10-09T23:11:42.736Z,13.84
2018-10-09T23:14:14.842Z,13.85
2018-10-09T23:16:45.552Z,13.83
2018-10-09T23:19:16.217Z,13.84
2018-10-09T23:21:46.925Z,13.84
2018-10-09T23:24:17.575Z,13.77
2018-10-09T23:26:48.276Z,13.70
2018-10-09T23:29:18.934Z,13.73
2018-10-09T23:31:49.719Z,13.67
2018-10-09T23:34:20.435Z,13.64
2018-10-09T23:36:51.203Z,13.69
2018-10-09T23:39:21.847Z,13.62
2018-10-09T23:41:52.654Z,13.67
2018-10-09T23:44:23.325Z,13.70
2018-10-09T23:46:54.023Z,13.77
2018-10-09T23:49:24.700Z,13.72
2018-10-09T23:51:55.392Z,13.78
2018-10-09T23:54:26.030Z,13.78
2018-10-09T23:56:56.706Z,13.75
2018-10-09T23:59:27.420Z,13.78
